Time;durP1;ratioP1;P1;durP2;ratioP2;P2;SDS_P1;SDS_P2;PMS_P1;PMS_P2;Temp;Humidity;BMP_temperature;BMP_pressure;BME280_temperature;BME280_humidity;BME280_pressure;Samples;Min_cycle;Max_cycle;Signal;HPM_P1;HPM_P2
2021/12/12 00:00:47;;;;;;;;;14.80;14.80;;;;;10.60;62.89;101718.72;2066511;28;48020;-61
2021/12/12 00:01:53;;;;;;;;;19.60;19.60;;;;;10.59;62.93;101722.25;2062011;28;45709;-61
2021/12/12 00:02:58;;;;;;;;;20.00;20.00;;;;;10.59;63.16;101715.16;2061523;28;46342;-61
2021/12/12 00:04:11;;;;;;;;;20.60;19.20;;;;;10.59;62.70;101720.47;2070071;28;46990;-62
2021/12/12 00:05:15;;;;;;;;;22.00;20.20;;;;;10.61;63.18;101717.81;2065715;28;47457;-62
2021/12/12 00:06:24;;;;;;;;;20.20;19.40;;;;;10.59;63.21;101712.50;2070032;28;46686;-62
2021/12/12 00:07:29;;;;;;;;;18.40;17.00;;;;;10.61;63.25;101720.47;2069351;28;46151;-62
2021/12/12 00:08:29;;;;;;;;;4.80;4.00;;;;;10.61;63.37;101715.16;2069842;28;48292;-61
2021/12/12 00:09:35;;;;;;;;;19.25;19.25;;;;;10.60;63.10;101706.31;2067516;28;47710;-63
2021/12/12 00:10:39;;;;;;;;;20.60;20.00;;;;;10.60;63.06;101708.97;2067191;28;47278;-62
2021/12/12 00:11:41;;;;;;;;;16.60;16.20;;;;;10.59;63.22;101703.69;2071082;28;47475;-63
2021/12/12 00:12:49;;;;;;;;;21.80;20.60;;;;;10.59;63.06;101706.31;2070018;28;46465;-60
2021/12/12 00:13:55;;;;;;;;;22.20;20.40;;;;;10.59;63.47;101704.56;2070126;28;47402;-61
2021/12/12 00:14:56;;;;;;;;;22.20;17.80;;;;;10.58;63.38;101701.91;2066494;28;47500;-63
2021/12/12 00:15:57;;;;;;;;;17.60;17.60;;;;;10.57;63.45;101700.16;2068867;28;48084;-62
2021/12/12 00:17:01;;;;;;;;;15.00;15.00;;;;;10.57;63.69;101703.69;2069730;28;45234;-61
2021/12/12 00:18:03;;;;;;;;;18.00;17.60;;;;;10.57;63.67;101702.81;2062451;28;46915;-62
2021/12/12 00:19:04;;;;;;;;;22.00;18.40;;;;;10.57;63.67;101701.03;2060877;28;47176;-61
2021/12/12 00:20:07;;;;;;;;;18.20;16.60;;;;;10.58;63.85;101699.25;2068026;28;46826;-61
2021/12/12 00:21:09;;;;;;;;;22.00;20.60;;;;;10.57;63.79;101692.19;2069097;28;47136;-61
2021/12/12 00:22:15;;;;;;;;;19.60;19.60;;;;;10.57;63.66;101693.06;2070771;28;47593;-61
2021/12/12 00:23:16;;;;;;;;;24.40;19.80;;;;;10.57;63.66;101695.72;2070821;28;47871;-60
2021/12/12 00:24:17;;;;;;;;;23.80;21.20;;;;;10.58;63.69;101693.94;2068724;28;46302;-61
2021/12/12 00:25:18;;;;;;;;;21.60;20.80;;;;;10.55;63.72;101697.50;2068153;28;47371;-61
2021/12/12 00:26:19;;;;;;;;;16.00;16.00;;;;;10.57;63.62;101697.50;2062511;28;47530;-60
2021/12/12 00:27:21;;;;;;;;;17.00;16.75;;;;;10.57;64.08;101690.41;2070428;28;47549;-62
2021/12/12 00:28:22;;;;;;;;;19.00;18.20;;;;;10.57;64.09;101689.53;2071813;28;47787;-61
2021/12/12 00:29:24;;;;;;;;;19.80;19.60;;;;;10.55;64.28;101689.53;2069288;28;48222;-61
2021/12/12 00:30:25;;;;;;;;;18.20;17.40;;;;;10.56;64.32;101696.63;2070086;28;47062;-60
2021/12/12 00:31:26;;;;;;;;;18.60;18.60;;;;;10.55;64.16;101681.59;2068866;28;47910;-62
2021/12/12 00:32:27;;;;;;;;;22.25;20.75;;;;;10.55;64.20;101684.25;2069384;28;46495;-62
2021/12/12 00:33:27;;;;;;;;;19.75;19.75;;;;;10.56;63.96;101683.34;2069960;28;47502;-62
2021/12/12 00:34:32;;;;;;;;;18.00;17.00;;;;;10.55;64.61;101684.25;2068650;28;45612;-61
2021/12/12 00:35:32;;;;;;;;;18.60;17.80;;;;;10.55;64.51;101678.06;2066573;28;46304;-60
2021/12/12 00:36:34;;;;;;;;;18.75;17.50;;;;;10.55;64.19;101686.00;2068881;28;47509;-61
2021/12/12 00:37:35;;;;;;;;;17.00;16.00;;;;;10.55;64.12;101689.53;2069745;28;48081;-61
2021/12/12 00:38:36;;;;;;;;;22.25;21.25;;;;;10.55;64.22;101694.84;2069687;28;47053;-62
2021/12/12 00:39:43;;;;;;;;;17.25;17.25;;;;;10.55;64.46;101684.25;2067455;28;47158;-62
2021/12/12 00:40:49;;;;;;;;;1.20;1.20;;;;;10.56;64.60;101685.13;2065950;28;47302;-62
2021/12/12 00:42:00;;;;;;;;;22.00;21.60;;;;;10.55;64.44;101683.34;2068377;28;47739;-61
2021/12/12 00:43:09;;;;;;;;;17.80;17.80;;;;;10.55;64.54;101688.66;2067253;28;47554;-61
2021/12/12 00:44:12;;;;;;;;;17.60;16.40;;;;;10.55;64.57;101686.00;2065137;28;47849;-61
2021/12/12 00:45:15;;;;;;;;;17.80;17.80;;;;;10.53;64.31;101680.69;2063887;28;47801;-65
2021/12/12 00:46:18;;;;;;;;;21.00;17.40;;;;;10.53;64.68;101686.00;2070932;28;47539;-61
2021/12/12 00:47:20;;;;;;;;;18.20;18.00;;;;;10.53;64.68;101680.69;2067650;28;45529;-62
2021/12/12 00:48:22;;;;;;;;;18.80;17.60;;;;;10.53;64.54;101690.41;2071327;28;47258;-62
2021/12/12 00:49:23;;;;;;;;;19.20;17.60;;;;;10.53;64.75;101693.06;2059981;28;46580;-62
2021/12/12 00:50:32;;;;;;;;;17.75;17.00;;;;;10.52;64.61;101692.19;2057265;28;46759;-61
2021/12/12 00:51:36;;;;;;;;;16.80;15.20;;;;;10.51;64.65;101693.09;2069596;28;47419;-63
2021/12/12 00:52:38;;;;;;;;;17.00;17.00;;;;;10.52;64.70;101680.69;2067564;28;47595;-63
2021/12/12 00:53:41;;;;;;;;;16.80;16.40;;;;;10.50;64.72;101680.72;2064613;28;47408;-62
2021/12/12 00:54:43;;;;;;;;;18.80;17.20;;;;;10.51;64.66;101681.59;2067764;28;47652;-62
2021/12/12 00:55:45;;;;;;;;;17.20;16.00;;;;;10.49;64.70;101686.91;2068490;28;47361;-61
2021/12/12 00:56:46;;;;;;;;;17.60;15.80;;;;;10.50;64.93;101679.84;2067000;28;47488;-61
2021/12/12 00:57:51;;;;;;;;;18.20;18.20;;;;;10.50;64.99;101690.44;2069503;28;47621;-62
2021/12/12 00:58:53;;;;;;;;;17.00;15.00;;;;;10.49;65.02;101678.06;2070080;28;45691;-61
2021/12/12 00:59:53;;;;;;;;;16.60;16.60;;;;;10.50;65.04;101677.19;2066653;28;47711;-62
2021/12/12 01:01:03;;;;;;;;;17.50;16.50;;;;;10.50;64.91;101685.13;2068793;28;47519;-63
2021/12/12 01:02:08;;;;;;;;;18.00;18.00;;;;;10.49;64.92;101672.75;2068724;28;47241;-62
2021/12/12 01:03:10;;;;;;;;;15.40;15.20;;;;;10.49;64.99;101678.06;2070086;28;48071;-61
2021/12/12 01:04:34;;;;;;;;;15.40;15.40;;;;;10.49;64.97;101680.72;2070276;28;47261;-60
2021/12/12 01:05:36;;;;;;;;;17.00;17.00;;;;;10.48;65.00;101681.63;2065620;28;47219;-62
2021/12/12 01:06:36;;;;;;;;;15.60;14.00;;;;;10.47;65.43;101679.84;2065058;28;47629;-61
2021/12/12 01:07:40;;;;;;;;;13.25;12.25;;;;;10.47;65.15;101674.56;2069339;28;47582;-60
2021/12/12 01:08:43;;;;;;;;;18.80;17.20;;;;;10.47;65.12;101682.50;2069020;28;47045;-62
2021/12/12 01:09:50;;;;;;;;;15.60;15.60;;;;;10.46;65.22;101673.66;2066910;28;48025;-61
2021/12/12 01:11:02;;;;;;;;;14.80;14.80;;;;;10.45;64.99;101679.88;2063832;28;47993;-62
2021/12/12 01:12:08;;;;;;;;;14.80;14.80;;;;;10.45;65.10;101682.53;2064709;28;46699;-60
2021/12/12 01:13:09;;;;;;;;;17.20;15.40;;;;;10.47;65.05;101682.50;2069853;28;47348;-60
2021/12/12 01:14:13;;;;;;;;;10.25;9.50;;;;;10.45;65.28;101682.53;2069295;28;45245;-61
2021/12/12 01:15:19;;;;;;;;;15.00;14.20;;;;;10.45;65.09;101690.50;2066117;28;47641;-62
2021/12/12 01:16:19;;;;;;;;;17.60;15.80;;;;;10.45;65.37;101681.66;2068326;28;47485;-62
2021/12/12 01:17:30;;;;;;;;;14.25;13.50;;;;;10.44;65.15;101683.41;2067139;28;47114;-62
2021/12/12 01:18:38;;;;;;;;;17.80;16.80;;;;;10.44;65.37;101685.19;2070093;28;47176;-61
2021/12/12 01:19:49;;;;;;;;;14.40;14.20;;;;;10.43;65.42;101683.44;2068445;28;46000;-61
2021/12/12 01:20:57;;;;;;;;;13.80;13.80;;;;;10.44;65.45;101680.75;2064079;28;47272;-62
2021/12/12 01:22:03;;;;;;;;;16.00;14.00;;;;;10.43;65.18;101680.78;2067147;28;47460;-61
2021/12/12 01:23:20;;;;;;;;;15.40;13.20;;;;;10.42;65.50;101682.56;2070146;28;47793;-61
2021/12/12 01:24:28;;;;;;;;;15.20;15.20;;;;;10.43;65.50;101684.31;2070101;28;47332;-61
2021/12/12 01:25:43;;;;;;;;;15.40;15.00;;;;;10.44;65.82;101687.84;2069354;28;47513;-61
2021/12/12 01:26:46;;;;;;;;;13.40;13.20;;;;;10.43;65.41;101680.78;2068388;28;47611;-61
2021/12/12 01:27:48;;;;;;;;;12.75;10.75;;;;;10.42;65.68;101677.25;2063934;28;47011;-62
2021/12/12 01:28:53;;;;;;;;;14.40;11.40;;;;;10.43;65.85;101688.75;2070870;28;47008;-61
2021/12/12 01:29:54;;;;;;;;;16.20;14.00;;;;;10.42;65.58;101682.56;2068135;28;47477;-61
2021/12/12 01:30:58;;;;;;;;;15.00;15.00;;;;;10.43;65.82;101688.75;2069088;28;47523;-62
2021/12/12 01:32:02;;;;;;;;;15.80;13.80;;;;;10.42;65.63;101689.63;2066425;28;47231;-62
2021/12/12 01:33:03;;;;;;;;;12.40;12.40;;;;;10.43;65.96;101688.75;2065239;28;47310;-61
2021/12/12 01:34:11;;;;;;;;;17.25;14.75;;;;;10.43;65.93;101686.97;2069245;28;46351;-60
2021/12/12 01:35:17;;;;;;;;;10.20;9.60;;;;;10.44;65.93;101687.84;2067309;28;45927;-61
2021/12/12 01:36:29;;;;;;;;;13.00;13.00;;;;;10.44;65.52;101693.16;2068852;28;48250;-60
2021/12/12 01:37:37;;;;;;;;;14.60;13.40;;;;;10.43;66.02;101694.94;2070290;28;48069;-61
2021/12/12 01:38:52;;;;;;;;;5.60;5.60;;;;;10.43;65.97;101691.38;2069845;28;47590;-61
2021/12/12 01:39:59;;;;;;;;;12.80;12.60;;;;;10.43;65.99;101697.56;2065991;28;47554;-61
2021/12/12 01:41:00;;;;;;;;;14.00;14.00;;;;;10.44;66.10;101695.81;2069556;28;47407;-62
2021/12/12 01:42:06;;;;;;;;;10.00;10.00;;;;;10.43;65.99;101692.28;2070194;28;47668;-61
2021/12/12 01:43:25;;;;;;;;;11.40;11.40;;;;;10.44;65.96;101696.69;2069678;28;47689;-62
2021/12/12 01:44:40;;;;;;;;;14.00;14.00;;;;;10.44;66.17;101694.03;2069912;28;48000;-62
2021/12/12 01:45:46;;;;;;;;;12.80;12.80;;;;;10.44;66.15;101696.69;2066546;28;46720;-63
2021/12/12 01:47:21;;;;;;;;;11.20;11.20;;;;;10.44;66.21;101690.50;2072202;28;47365;-61
2021/12/12 01:48:31;;;;;;;;;12.25;9.75;;;;;10.44;66.41;101695.81;2064693;28;47492;-62
2021/12/12 01:49:36;;;;;;;;;13.75;9.75;;;;;10.44;66.17;101696.69;2070390;28;47474;-61
2021/12/12 01:50:43;;;;;;;;;8.00;7.50;;;;;10.44;66.03;101695.81;2066375;28;47312;-62
2021/12/12 01:51:46;;;;;;;;;10.00;9.00;;;;;10.44;66.11;101699.34;2071304;28;45499;-61
2021/12/12 01:52:48;;;;;;;;;11.00;10.00;;;;;10.44;66.31;101696.69;2071152;28;47398;-61
2021/12/12 01:53:54;;;;;;;;;11.00;10.25;;;;;10.44;66.33;101688.72;2070549;28;47752;-61
2021/12/12 01:55:07;;;;;;;;;11.00;11.00;;;;;10.45;66.31;101698.44;2067100;28;47635;-61
2021/12/12 01:56:17;;;;;;;;;11.00;10.25;;;;;10.45;66.47;101700.22;2070838;28;47469;-61
2021/12/12 01:57:26;;;;;;;;;14.50;12.25;;;;;10.43;66.47;101692.28;2063862;28;46901;-60
2021/12/12 01:58:29;;;;;;;;;12.75;10.50;;;;;10.44;66.41;101693.16;2071679;28;47620;-62
2021/12/12 01:59:34;;;;;;;;;10.60;9.60;;;;;10.44;66.29;101702.00;2070410;28;47679;-61
2021/12/12 02:01:05;;;;;;;;;10.25;10.25;;;;;10.45;66.24;101705.53;2067284;28;47744;-61
2021/12/12 02:02:20;;;;;;;;;10.75;10.75;;;;;10.44;66.73;101709.06;2071937;28;47692;-61
2021/12/12 02:03:24;;;;;;;;;9.25;9.00;;;;;10.45;66.59;101708.19;2072141;28;47306;-60
2021/12/12 02:04:29;;;;;;;;;10.25;10.25;;;;;10.45;66.42;101711.72;2070253;28;47647;-61
2021/12/12 02:05:31;;;;;;;;;8.50;8.00;;;;;10.45;66.62;101711.72;2067771;28;47590;-61
2021/12/12 02:06:32;;;;;;;;;9.00;9.00;;;;;10.46;66.48;101715.25;2071046;28;47170;-61
2021/12/12 02:07:36;;;;;;;;;11.25;10.00;;;;;10.46;66.59;101716.13;2070492;28;47810;-60
2021/12/12 02:08:38;;;;;;;;;9.00;9.00;;;;;10.46;66.69;101709.94;2071999;28;47810;-61
2021/12/12 02:09:40;;;;;;;;;9.75;9.75;;;;;10.47;66.68;101717.91;2068324;28;47717;-61
2021/12/12 02:10:46;;;;;;;;;11.00;9.50;;;;;10.47;66.46;101725.84;2068167;28;46698;-62
2021/12/12 02:11:48;;;;;;;;;9.25;9.25;;;;;10.48;66.31;101721.44;2067020;28;47830;-61
2021/12/12 02:12:49;;;;;;;;;8.00;8.00;;;;;10.48;66.81;101717.00;2070472;28;47709;-64
2021/12/12 02:13:54;;;;;;;;;8.25;8.25;;;;;10.48;66.83;101718.78;2070759;28;47302;-63
2021/12/12 02:14:57;;;;;;;;;9.00;9.00;;;;;10.50;66.79;101724.94;2066403;28;47706;-61
2021/12/12 02:16:00;;;;;;;;;10.75;9.50;;;;;10.48;66.87;101722.31;2070683;28;46045;-62
2021/12/12 02:17:16;;;;;;;;;8.00;8.00;;;;;10.49;67.02;101712.56;2072576;28;47151;-60
2021/12/12 02:18:20;;;;;;;;;13.00;10.00;;;;;10.51;66.81;101721.41;2071496;28;47410;-61
2021/12/12 02:19:30;;;;;;;;;7.00;7.00;;;;;10.51;66.82;101724.94;2070068;28;46933;-61
2021/12/12 02:20:39;;;;;;;;;7.75;7.75;;;;;10.53;67.11;101724.94;2070365;28;47798;-61
2021/12/12 02:22:27;;;;;;;;;9.75;8.75;;;;;10.53;66.83;101725.81;2071144;28;47446;-61
2021/12/12 02:35:06;;;;;;;;;8.75;8.75;;;;;10.53;66.72;101725.81;2070111;28;47488;-61
2021/12/12 02:36:00;;;;;;;;;10.25;9.00;;;;;10.53;66.71;101716.97;2066331;28;47547;-61
2021/12/12 02:36:31;;;;;;;;;9.00;9.00;;;;;10.54;67.30;101734.66;2065102;28;46561;-60
2021/12/12 02:37:32;;;;;;;;;9.75;7.00;;;;;10.54;67.11;101739.97;2070099;28;47390;-61
2021/12/12 02:38:33;;;;;;;;;7.75;7.75;;;;;10.54;66.88;101739.97;2070860;28;47159;-61
2021/12/12 02:39:35;;;;;;;;;7.00;7.00;;;;;10.53;67.20;101736.41;2067899;28;47411;-61
2021/12/12 02:40:43;;;;;;;;;7.75;7.75;;;;;10.54;66.99;101735.56;2066142;28;48087;-61
2021/12/12 02:41:50;;;;;;;;;8.50;7.75;;;;;10.55;67.03;101728.47;2070896;28;47622;-62
2021/12/12 02:42:52;;;;;;;;;10.00;9.75;;;;;10.55;67.04;101733.78;2070869;28;47293;-62
2021/12/12 02:43:58;;;;;;;;;8.25;8.25;;;;;10.56;67.17;101735.56;2069671;28;47758;-61
2021/12/12 02:45:01;;;;;;;;;9.50;9.50;;;;;10.56;67.12;101727.59;2065739;28;47970;-61
2021/12/12 02:46:03;;;;;;;;;8.50;8.50;;;;;10.56;67.32;101733.78;2069264;28;47307;-61
2021/12/12 02:47:11;;;;;;;;;9.25;9.25;;;;;10.57;67.47;101732.00;2071863;28;47776;-60
2021/12/12 02:48:18;;;;;;;;;9.75;9.75;;;;;10.56;67.32;101732.91;2064137;28;47290;-60
2021/12/12 02:50:42;;;;;;;;;8.00;7.50;;;;;10.56;67.05;101738.19;2063595;28;47637;-61
2021/12/12 02:51:42;;;;;;;;;7.25;7.25;;;;;10.57;67.23;101734.66;2071523;28;47346;-61
2021/12/12 02:52:49;;;;;;;;;10.00;9.00;;;;;10.57;67.32;101735.53;2068870;28;47713;-61
2021/12/12 02:53:54;;;;;;;;;7.50;7.50;;;;;10.58;67.23;101739.94;2065096;28;47155;-61
2021/12/12 02:55:00;;;;;;;;;7.25;7.25;;;;;10.58;67.21;101737.31;2065882;28;47154;-62
2021/12/12 02:56:09;;;;;;;;;8.25;8.25;;;;;10.58;67.40;101742.59;2070355;28;46808;-61
2021/12/12 02:57:11;;;;;;;;;7.00;7.00;;;;;10.59;67.07;101744.38;2071154;28;47766;-61
2021/12/12 02:58:13;;;;;;;;;10.00;10.00;;;;;10.59;67.39;101738.19;2070707;28;47984;-60
2021/12/12 02:59:18;;;;;;;;;10.75;10.00;;;;;10.60;67.40;101746.13;2070918;28;47359;-60
2021/12/12 03:00:22;;;;;;;;;8.25;7.75;;;;;10.59;67.21;101741.72;2067884;28;48161;-61
2021/12/12 03:01:25;;;;;;;;;9.75;8.75;;;;;10.61;67.07;101739.03;2072028;28;47679;-61
2021/12/12 03:02:30;;;;;;;;;8.50;8.50;;;;;10.61;67.51;101745.25;2071336;28;46419;-62
2021/12/12 03:03:35;;;;;;;;;8.75;8.75;;;;;10.62;67.78;101746.13;2063786;28;47392;-62
2021/12/12 03:04:36;;;;;;;;;9.75;9.75;;;;;10.62;67.56;101754.09;2065876;28;47977;-62
2021/12/12 03:05:42;;;;;;;;;9.00;8.00;;;;;10.63;67.78;101750.53;2067050;28;47259;-61
2021/12/12 03:06:45;;;;;;;;;11.50;10.00;;;;;10.63;67.61;101745.22;2071503;28;48130;-62
2021/12/12 03:07:46;;;;;;;;;10.50;10.50;;;;;10.64;67.67;101752.28;2070957;28;47358;-60
2021/12/12 03:08:51;;;;;;;;;8.33;8.00;;;;;10.63;67.54;101747.88;2070432;28;47382;-61
2021/12/12 03:09:56;;;;;;;;;8.00;8.00;;;;;10.64;67.73;101749.63;2065214;28;47341;-61
2021/12/12 03:10:56;;;;;;;;;8.50;8.00;;;;;10.65;67.63;101748.75;2070839;28;47186;-60
2021/12/12 03:12:03;;;;;;;;;9.00;9.00;;;;;10.64;67.73;101749.63;2071521;28;47849;-61
2021/12/12 03:13:05;;;;;;;;;7.00;7.00;;;;;10.64;67.49;101748.75;2071822;28;46832;-60
2021/12/12 03:14:07;;;;;;;;;9.00;8.25;;;;;10.64;67.85;101744.34;2071184;28;47493;-62
2021/12/12 03:15:18;;;;;;;;;9.50;9.50;;;;;10.65;67.51;101746.09;2070737;28;46860;-62
2021/12/12 03:16:19;;;;;;;;;9.00;9.00;;;;;10.65;67.57;101747.88;2070059;28;46509;-61
2021/12/12 03:17:22;;;;;;;;;11.00;11.00;;;;;10.66;67.55;101745.19;2071178;28;46249;-61
2021/12/12 03:18:27;;;;;;;;;11.25;9.00;;;;;10.66;67.71;101742.53;2070655;28;47517;-61
2021/12/12 03:19:28;;;;;;;;;8.25;7.25;;;;;10.67;67.45;101744.34;2068804;28;47485;-61
2021/12/12 03:20:34;;;;;;;;;7.00;7.00;;;;;10.68;67.61;101742.56;2065652;28;47252;-62
2021/12/12 03:21:42;;;;;;;;;8.75;8.00;;;;;10.68;67.81;101747.88;2070474;28;47184;-61
2021/12/12 03:22:43;;;;;;;;;7.75;7.75;;;;;10.68;67.79;101743.44;2070381;28;47130;-62
2021/12/12 03:23:51;;;;;;;;;7.50;7.50;;;;;10.70;67.66;101748.75;2071125;28;47276;-61
2021/12/12 03:24:53;;;;;;;;;7.00;6.50;;;;;10.69;67.81;101750.50;2068104;28;47733;-62
2021/12/12 03:26:03;;;;;;;;;8.25;8.00;;;;;10.71;67.84;101742.53;2069617;28;47636;-62
2021/12/12 03:27:06;;;;;;;;;8.50;5.75;;;;;10.70;67.52;101746.97;2071267;28;48043;-62
2021/12/12 03:28:09;;;;;;;;;7.50;7.50;;;;;10.70;67.85;101754.94;2071552;28;47266;-62
2021/12/12 03:29:10;;;;;;;;;7.50;7.50;;;;;10.71;67.65;101748.72;2070969;28;47993;-62
2021/12/12 03:30:11;;;;;;;;;9.00;8.00;;;;;10.72;67.78;101749.63;2068502;28;47229;-62
2021/12/12 03:31:16;;;;;;;;;10.00;10.00;;;;;10.71;67.78;101751.38;2071570;28;47576;-62
2021/12/12 03:32:19;;;;;;;;;9.25;7.00;;;;;10.72;67.66;101745.19;2074963;28;47961;-61
2021/12/12 03:33:21;;;;;;;;;8.00;6.50;;;;;10.72;67.73;101745.19;2077423;28;47301;-62
2021/12/12 03:34:24;;;;;;;;;8.00;7.50;;;;;10.72;67.60;101739.88;2068557;28;47902;-61
2021/12/12 03:35:25;;;;;;;;;8.75;8.75;;;;;10.72;67.86;101744.31;2069444;28;46796;-61
2021/12/12 03:36:26;;;;;;;;;9.00;8.00;;;;;10.72;67.59;101737.22;2069391;28;47297;-62
2021/12/12 03:37:31;;;;;;;;;8.00;8.00;;;;;10.73;67.50;101740.75;2071642;28;47911;-62
2021/12/12 03:38:33;;;;;;;;;9.50;9.25;;;;;10.73;67.84;101746.06;2069728;28;47555;-60
2021/12/12 03:39:38;;;;;;;;;9.75;9.75;;;;;10.73;67.91;101738.09;2069669;28;47947;-61
2021/12/12 03:40:40;;;;;;;;;7.75;7.75;;;;;10.73;67.93;101746.06;2067210;28;47743;-63
2021/12/12 03:41:41;;;;;;;;;9.25;6.75;;;;;10.73;67.83;101738.97;2069145;28;47164;-61
2021/12/12 03:42:44;;;;;;;;;8.00;8.00;;;;;10.74;67.87;101743.41;2070694;28;45965;-60
2021/12/12 03:43:53;;;;;;;;;7.25;7.25;;;;;10.74;68.02;101742.50;2069985;28;47199;-61
2021/12/12 03:44:56;;;;;;;;;7.75;7.75;;;;;10.74;67.95;101746.06;2067511;28;47732;-60
2021/12/12 03:45:58;;;;;;;;;6.25;6.25;;;;;10.75;68.02;101745.16;2068386;28;46812;-61
2021/12/12 03:47:10;;;;;;;;;8.00;8.00;;;;;10.76;67.73;101738.06;2070470;28;47381;-62
2021/12/12 03:48:16;;;;;;;;;6.75;6.75;;;;;10.76;68.07;101746.03;2069896;28;47180;-61
2021/12/12 03:49:20;;;;;;;;;7.50;6.75;;;;;10.77;68.10;101748.69;2070159;28;47640;-61
2021/12/12 03:50:27;;;;;;;;;8.25;8.00;;;;;10.77;68.05;101750.44;2065867;28;47195;-61
2021/12/12 03:51:29;;;;;;;;;6.50;6.50;;;;;10.77;67.75;101746.03;2071238;28;47324;-62
2021/12/12 03:52:30;;;;;;;;;7.25;6.75;;;;;10.77;67.73;101746.03;2073116;28;47200;-62
2021/12/12 03:53:35;;;;;;;;;9.00;7.67;;;;;10.77;67.90;101742.50;2070961;28;47438;-60
2021/12/12 03:54:37;;;;;;;;;8.25;7.75;;;;;10.77;67.96;101746.03;2069623;28;47875;-60
2021/12/12 03:55:38;;;;;;;;;8.00;7.75;;;;;10.79;67.79;101746.88;2070507;28;47498;-61
2021/12/12 03:56:41;;;;;;;;;9.25;9.25;;;;;10.79;68.14;101744.22;2068778;28;46872;-61
2021/12/12 03:57:42;;;;;;;;;6.25;6.25;;;;;10.79;67.95;101743.34;2070239;28;47107;-61
2021/12/12 03:58:45;;;;;;;;;8.25;8.00;;;;;10.79;68.28;101743.34;2071150;28;46586;-60
2021/12/12 03:59:48;;;;;;;;;7.75;7.75;;;;;10.80;68.17;101740.72;2067676;28;47642;-60
2021/12/12 04:00:56;;;;;;;;;7.25;7.00;;;;;10.81;67.96;101746.91;2062897;28;47275;-61
2021/12/12 04:01:57;;;;;;;;;7.00;7.00;;;;;10.81;68.09;101753.09;2068764;28;47349;-61
2021/12/12 04:02:59;;;;;;;;;7.00;7.00;;;;;10.81;68.19;101746.91;2071463;28;46005;-61
2021/12/12 04:04:13;;;;;;;;;8.50;7.00;;;;;10.82;68.16;101751.31;2068095;28;46460;-61
2021/12/12 04:05:14;;;;;;;;;7.25;7.25;;;;;10.81;68.23;101750.44;2067775;28;47630;-61
2021/12/12 04:06:19;;;;;;;;;8.00;7.00;;;;;10.83;68.07;101745.13;2065613;28;47436;-62
2021/12/12 04:07:24;;;;;;;;;9.50;9.50;;;;;10.83;67.93;101742.47;2062532;28;47867;-61
2021/12/12 04:08:35;;;;;;;;;7.25;7.25;;;;;10.84;68.01;101749.53;2067058;28;47471;-60
2021/12/12 04:09:37;;;;;;;;;10.00;8.75;;;;;10.84;68.19;101738.91;2069127;28;47715;-60
2021/12/12 04:10:38;;;;;;;;;8.80;6.80;;;;;10.85;68.05;101746.00;2068875;28;47205;-60
2021/12/12 04:11:49;;;;;;;;;7.67;7.67;;;;;10.86;68.19;101748.63;2070857;28;47209;-61
2021/12/12 04:12:52;;;;;;;;;9.25;8.00;;;;;10.87;68.27;101739.78;2070433;28;47478;-61
2021/12/12 04:13:55;;;;;;;;;7.75;7.75;;;;;10.87;68.38;101753.03;2070681;28;47561;-61
2021/12/12 04:14:57;;;;;;;;;6.75;5.50;;;;;10.87;67.99;101753.03;2068396;28;47125;-62
2021/12/12 04:15:57;;;;;;;;;7.75;7.00;;;;;10.89;68.34;101758.34;2065245;28;46838;-60
2021/12/12 04:17:07;;;;;;;;;8.00;7.00;;;;;10.91;68.28;101754.78;2071005;28;47276;-61
2021/12/12 04:18:08;;;;;;;;;6.25;6.00;;;;;10.91;68.10;101753.91;2070630;28;47247;-61
2021/12/12 04:19:09;;;;;;;;;7.67;7.67;;;;;10.92;68.25;101760.97;2070427;28;47258;-61
2021/12/12 04:20:30;;;;;;;;;7.25;7.25;;;;;10.93;68.13;101759.22;2063996;28;47245;-60
2021/12/12 04:21:31;;;;;;;;;8.50;8.00;;;;;10.92;68.37;101760.97;2068353;28;47247;-62
2021/12/12 04:22:33;;;;;;;;;10.00;9.00;;;;;10.93;68.25;101760.09;2069892;28;47417;-62
2021/12/12 04:23:34;;;;;;;;;8.50;8.50;;;;;10.94;68.07;101766.31;2070691;28;47264;-61
2021/12/12 04:24:38;;;;;;;;;9.00;9.00;;;;;10.95;68.30;101770.72;2069087;28;47727;-60
2021/12/12 04:25:39;;;;;;;;;10.25;8.75;;;;;10.96;68.12;101769.81;2070191;28;47805;-61
2021/12/12 04:26:42;;;;;;;;;8.00;8.00;;;;;10.95;68.33;101758.31;2070904;28;47629;-60
2021/12/12 04:27:43;;;;;;;;;8.50;8.50;;;;;10.96;68.11;101767.16;2071166;28;48185;-61
2021/12/12 04:28:43;;;;;;;;;7.50;6.50;;;;;10.96;68.33;101765.41;2071361;28;47254;-60
2021/12/12 04:29:48;;;;;;;;;10.00;10.00;;;;;10.96;68.21;101769.81;2069671;28;47720;-61
2021/12/12 04:30:48;;;;;;;;;7.75;7.00;;;;;10.96;68.22;101773.38;2066135;28;47189;-60
2021/12/12 04:31:52;;;;;;;;;7.33;7.33;;;;;10.98;68.29;101762.72;2067439;28;46743;-62
2021/12/12 04:32:53;;;;;;;;;9.00;9.00;;;;;10.98;68.42;101776.00;2068880;28;47547;-61
2021/12/12 04:33:54;;;;;;;;;9.67;9.67;;;;;10.98;68.23;101776.88;2070710;28;47515;-61
2021/12/12 04:35:05;;;;;;;;;10.75;9.50;;;;;10.99;68.19;101773.34;2069169;28;47558;-61
2021/12/12 04:36:06;;;;;;;;;10.00;10.00;;;;;11.00;68.07;101774.22;2070937;28;46898;-60
2021/12/12 04:37:10;;;;;;;;;12.00;8.75;;;;;10.99;68.01;101777.78;2070606;28;45707;-61
2021/12/12 04:38:11;;;;;;;;;10.50;9.50;;;;;11.00;68.21;101776.88;2070914;28;47677;-61
2021/12/12 04:39:25;;;;;;;;;9.33;9.33;;;;;10.99;68.33;101772.47;2070021;28;46074;-61
2021/12/12 04:40:29;;;;;;;;;10.50;10.00;;;;;10.99;68.22;101773.34;2068229;28;47165;-61
2021/12/12 04:41:29;;;;;;;;;8.75;8.75;;;;;11.00;68.30;101779.53;2065776;28;47361;-61
2021/12/12 04:42:34;;;;;;;;;6.00;6.00;;;;;10.99;67.83;101768.03;2070864;28;47529;-62
2021/12/12 04:43:34;;;;;;;;;12.50;11.25;;;;;11.00;68.14;101776.88;2061340;28;46975;-62
2021/12/12 04:44:37;;;;;;;;;9.33;9.33;;;;;10.99;68.25;101773.34;2061092;28;46137;-61
2021/12/12 04:45:47;;;;;;;;;12.00;8.00;;;;;11.00;68.38;101776.88;2066691;28;45378;-61
2021/12/12 04:49:58;;;;;;;;;11.75;10.50;;;;;11.00;68.07;101768.91;2067585;28;47557;-61
2021/12/12 04:51:03;;;;;;;;;8.00;7.00;;;;;11.00;68.43;101767.13;2069328;28;48046;-61
2021/12/12 04:52:04;;;;;;;;;9.50;9.50;;;;;11.01;68.41;101770.66;2070866;28;47573;-62
2021/12/12 04:53:11;;;;;;;;;10.25;8.75;;;;;11.01;68.46;101775.97;2065267;28;47057;-61
2021/12/12 04:54:42;;;;;;;;;13.00;10.00;;;;;11.01;68.32;101768.00;2063844;28;47433;-61
2021/12/12 04:56:05;;;;;;;;;9.75;9.75;;;;;11.00;68.49;101777.75;2066645;28;47368;-61
2021/12/12 04:57:22;;;;;;;;;9.00;9.00;;;;;11.01;68.55;101779.50;2071197;28;47748;-61
2021/12/12 04:58:33;;;;;;;;;10.00;10.00;;;;;11.01;68.61;101783.94;2071029;28;47763;-62
2021/12/12 04:59:42;;;;;;;;;11.25;11.25;;;;;11.01;68.41;101786.59;2068970;28;47745;-62
2021/12/12 05:00:49;;;;;;;;;15.00;14.75;;;;;11.02;68.45;101791.03;2066640;28;47129;-61
2021/12/12 05:02:06;;;;;;;;;12.25;10.75;;;;;11.01;68.47;101787.47;2066800;28;47730;-61
2021/12/12 05:03:18;;;;;;;;;14.50;12.50;;;;;11.02;68.67;101786.59;2071044;28;47278;-62
2021/12/12 05:04:29;;;;;;;;;10.25;10.25;;;;;11.02;68.63;101788.38;2060504;28;47666;-62
2021/12/12 05:05:36;;;;;;;;;13.50;12.50;;;;;11.03;68.70;101792.78;2062108;28;47347;-61
2021/12/12 05:07:05;;;;;;;;;14.00;12.25;;;;;11.03;68.39;101787.47;2071241;28;48389;-62
2021/12/12 05:08:11;;;;;;;;;10.50;9.75;;;;;11.04;68.37;101789.22;2061358;28;47858;-61
2021/12/12 05:09:23;;;;;;;;;10.25;10.00;;;;;11.03;68.74;101788.34;2067624;28;47873;-62
2021/12/12 05:10:57;;;;;;;;;8.50;7.00;;;;;11.05;68.51;101791.00;2067414;28;46369;-62
2021/12/12 05:12:09;;;;;;;;;11.50;11.25;;;;;11.05;68.70;101794.56;2067875;28;47301;-61
2021/12/12 05:13:20;;;;;;;;;10.00;10.00;;;;;11.05;68.68;101791.00;2070299;28;47741;-62
2021/12/12 05:14:25;;;;;;;;;12.75;12.25;;;;;11.06;68.44;101792.78;2068461;28;47613;-62
2021/12/12 05:15:33;;;;;;;;;11.25;11.25;;;;;11.06;68.60;101793.66;2068682;28;47657;-61
2021/12/12 05:16:39;;;;;;;;;12.00;12.00;;;;;11.07;68.61;101797.19;2070470;28;47579;-61